الصفحة الرئيسية
METAR-TAF:

METAR-TAF

مطار :

Nenana, ألاسكا, الولايات المتحدة

دائرة عرض: 64-33N, خط طول: 149-05W, ارتفاع: 110 متر

مراقبة الطقس الحالي

تاريخ ووقت الإصدار 31 دقيقة قبل الساعة 13:53UTC
رياح هادئة
درجة الحرارة 1°درجة مئوية
الرطوبة 69%
ضغط 1014 hPa
الرؤية: 16.1 كم
غيوم مفككة على ارتفاع 7000 قدم
ملبد بالغيوم على ارتفاع 10000 قدم

METAR: PANN 231353Z AUTO 00000KT 10SM BKN070 OVC100 01/M04 A2994 RMK AO2 SLP145 T00061039 TSNO

زمن: 06:24 (14:24 UTC)


TAF: مفقودة

أرصاد الطقس والتوقعات من أكثر من 4000 مطار (تقارير الطقس للمطار METAR والتنبؤ بالطقس بالمطارTAF).

المحطات المتاحة هي النقط الصفراء والحمراء على الخريطة.

حرك المؤشر فوق النقطة لمعرفة اسم المحطة.

ثم انقر لمعرفة أرصاد وتوقعات الطقس.

لتغيير الخارطة: اضغط على الأزرار الخضراء مع رمز الصليب الأسود للتكبير. على الزر الأخضر مع شرطة للتصغير، أو على الأسهم الخضراء للخرائط المجاورة.


METAR-TAF: